createdAt,value
2023-03-24T00:00:11.203Z,96.90
2023-03-24T00:02:42.054Z,96.90
2023-03-24T00:05:14.526Z,96.80
2023-03-24T00:07:42.434Z,96.50
2023-03-24T00:10:12.900Z,96.40
2023-03-24T00:12:42.631Z,96.40
2023-03-24T00:15:19.071Z,96.40
2023-03-24T00:17:50.389Z,96.30
2023-03-24T00:20:19.930Z,96.30
2023-03-24T00:22:56.823Z,96.10
2023-03-24T00:25:29.625Z,96.10
2023-03-24T00:27:57.583Z,95.90
2023-03-24T00:30:26.078Z,96.00
2023-03-24T00:32:53.896Z,95.90
2023-03-24T00:35:21.937Z,95.70
2023-03-24T00:37:51.982Z,95.70
2023-03-24T00:40:20.943Z,95.50
2023-03-24T00:42:49.223Z,95.70
2023-03-24T00:45:23.045Z,95.70
2023-03-24T00:47:54.471Z,95.50
2023-03-24T00:50:27.121Z,95.40
2023-03-24T00:52:55.530Z,95.60
2023-03-24T00:55:23.064Z,95.70
2023-03-24T00:57:51.258Z,96.00
2023-03-24T01:00:21.506Z,95.90
2023-03-24T01:02:53.672Z,96.00
2023-03-24T01:05:22.310Z,96.00
2023-03-24T01:07:52.326Z,96.10
2023-03-24T01:10:21.744Z,96.00
2023-03-24T01:12:49.209Z,96.30
2023-03-24T01:15:18.699Z,96.30
2023-03-24T01:17:48.689Z,96.80
2023-03-24T01:20:16.474Z,96.80
2023-03-24T01:22:46.176Z,96.70
2023-03-24T01:25:16.882Z,96.80
2023-03-24T01:27:45.054Z,96.90
2023-03-24T01:30:14.116Z,97.00
2023-03-24T01:32:41.832Z,97.10
2023-03-24T01:35:09.401Z,97.40
2023-03-24T01:37:36.902Z,97.20
2023-03-24T01:40:09.035Z,97.10
2023-03-24T01:42:36.848Z,96.70
2023-03-24T01:45:35.535Z,96.70
2023-03-24T01:48:03.067Z,96.60
2023-03-24T01:50:30.606Z,96.70
2023-03-24T01:52:58.493Z,96.60
2023-03-24T01:55:25.997Z,96.60
2023-03-24T01:57:56.493Z,96.60
2023-03-24T02:00:28.519Z,96.70
2023-03-24T02:03:34.180Z,96.50
2023-03-24T02:06:02.622Z,96.60
2023-03-24T02:08:38.908Z,96.60
2023-03-24T02:11:06.487Z,96.60
2023-03-24T02:13:43.059Z,96.70
2023-03-24T02:16:30.880Z,96.70
2023-03-24T02:19:39.361Z,96.20
2023-03-24T02:22:26.915Z,96.50
2023-03-24T02:25:17.188Z,96.30
2023-03-24T02:27:55.167Z,96.20
2023-03-24T02:30:52.968Z,96.00
2023-03-24T02:33:39.399Z,96.20
2023-03-24T02:36:12.281Z,96.30
2023-03-24T02:39:10.813Z,96.50
2023-03-24T02:42:15.914Z,96.70
2023-03-24T02:45:01.521Z,96.70
2023-03-24T02:47:35.929Z,96.90
2023-03-24T02:50:18.483Z,97.60
2023-03-24T02:52:48.984Z,97.80
2023-03-24T02:55:25.384Z,98.10
2023-03-24T02:58:01.663Z,98.20
2023-03-24T03:00:49.145Z,98.60
2023-03-24T03:03:41.491Z,98.70
2023-03-24T03:06:14.506Z,98.70
2023-03-24T03:08:41.936Z,98.90
2023-03-24T03:11:12.300Z,99.30
2023-03-24T03:14:04.485Z,99.40
2023-03-24T03:16:43.348Z,99.50
2023-03-24T03:19:22.354Z,99.90
2023-03-24T03:21:50.570Z,99.90
2023-03-24T03:24:27.029Z,99.90
2023-03-24T03:27:03.095Z,99.90
2023-03-24T03:29:34.146Z,99.90
2023-03-24T03:32:08.076Z,99.90
2023-03-24T03:34:48.440Z,99.90
2023-03-24T03:37:36.474Z,99.90
2023-03-24T03:40:09.728Z,99.90
2023-03-24T03:42:39.845Z,99.90
2023-03-24T03:45:10.716Z,99.90
2023-03-24T03:47:39.370Z,99.90
2023-03-24T03:50:10.812Z,99.90
2023-03-24T03:52:38.745Z,99.90
2023-03-24T03:55:06.888Z,99.90
2023-03-24T03:57:34.713Z,99.90
2023-03-24T04:00:24.138Z,99.90
2023-03-24T04:03:40.046Z,99.90
2023-03-24T04:06:30.881Z,99.90
2023-03-24T04:09:24.295Z,99.90
2023-03-24T04:12:18.190Z,99.90
2023-03-24T04:15:42.545Z,99.90
2023-03-24T04:18:31.800Z,99.90
2023-03-24T04:21:33.393Z,99.90
2023-03-24T04:24:36.375Z,99.90
2023-03-24T04:27:28.124Z,99.90
2023-03-24T04:30:17.819Z,99.90
2023-03-24T04:32:58.591Z,99.90
2023-03-24T04:35:40.571Z,99.90
2023-03-24T04:38:25.888Z,99.90
2023-03-24T04:41:07.774Z,99.90
2023-03-24T04:43:38.304Z,99.90
2023-03-24T04:46:09.538Z,99.90
2023-03-24T04:48:50.798Z,99.90
2023-03-24T04:51:28.756Z,99.90
2023-03-24T04:54:16.315Z,99.90
2023-03-24T04:56:53.796Z,99.90
2023-03-24T04:59:34.556Z,99.90
2023-03-24T05:02:04.196Z,99.90
2023-03-24T05:04:37.351Z,99.90
2023-03-24T05:07:15.530Z,99.90
2023-03-24T05:09:44.153Z,99.90
2023-03-24T05:12:12.993Z,99.90
2023-03-24T05:15:04.143Z,99.90
2023-03-24T05:17:32.537Z,99.90
2023-03-24T05:19:59.856Z,99.90
2023-03-24T05:22:27.453Z,99.90
2023-03-24T05:24:54.841Z,99.90
2023-03-24T05:27:22.235Z,99.90
2023-03-24T05:29:49.616Z,99.90
2023-03-24T05:32:22.666Z,99.90
2023-03-24T05:34:49.983Z,99.90
2023-03-24T05:37:23.775Z,99.90
2023-03-24T05:39:54.865Z,99.90
2023-03-24T05:42:39.218Z,99.90
2023-03-24T05:45:07.310Z,99.90
2023-03-24T05:47:34.801Z,99.90
2023-03-24T05:50:02.239Z,99.90
2023-03-24T05:52:31.652Z,99.90
2023-03-24T05:55:12.140Z,99.90
2023-03-24T05:57:40.637Z,99.90
2023-03-24T06:00:40.796Z,99.90
2023-03-24T06:03:17.340Z,99.90
2023-03-24T06:05:51.304Z,99.90
2023-03-24T06:08:18.780Z,99.90
2023-03-24T06:10:46.135Z,99.90
2023-03-24T06:13:13.588Z,99.90
2023-03-24T06:15:47.927Z,99.90
2023-03-24T06:18:34.133Z,99.90
2023-03-24T06:21:08.212Z,99.90
2023-03-24T06:23:36.159Z,99.90
2023-03-24T06:26:11.674Z,99.90
2023-03-24T06:28:58.731Z,99.90
2023-03-24T06:31:30.823Z,99.90
2023-03-24T06:33:58.237Z,99.90
2023-03-24T06:36:25.943Z,99.90
2023-03-24T06:38:54.106Z,99.90
2023-03-24T06:41:22.706Z,99.90
2023-03-24T06:43:54.757Z,99.90
2023-03-24T06:46:22.193Z,99.90
2023-03-24T06:48:49.724Z,99.90
2023-03-24T06:51:17.638Z,99.90
2023-03-24T06:53:46.839Z,99.90
2023-03-24T06:56:19.970Z,99.90
2023-03-24T06:58:52.654Z,99.90
2023-03-24T07:01:48.015Z,99.90
2023-03-24T07:04:25.717Z,99.90
2023-03-24T07:07:25.900Z,99.90
2023-03-24T07:09:58.482Z,99.90
2023-03-24T07:12:25.898Z,99.90
2023-03-24T07:14:53.305Z,99.90
2023-03-24T07:17:21.018Z,99.90
2023-03-24T07:20:15.978Z,99.90
2023-03-24T07:22:50.827Z,99.90
2023-03-24T07:25:26.920Z,99.90
2023-03-24T07:28:01.766Z,99.90
2023-03-24T07:30:39.891Z,99.90
2023-03-24T07:33:12.555Z,99.90
2023-03-24T07:35:41.926Z,99.90
2023-03-24T07:38:10.567Z,99.90
2023-03-24T07:40:38.443Z,99.90
2023-03-24T07:43:06.620Z,99.90
2023-03-24T07:45:47.435Z,99.90
2023-03-24T07:48:15.432Z,99.90
2023-03-24T07:50:43.010Z,99.90
2023-03-24T07:53:36.208Z,99.90
2023-03-24T07:56:04.104Z,99.90
2023-03-24T07:58:31.959Z,99.90
2023-03-24T08:01:09.855Z,99.90
2023-03-24T08:03:43.017Z,99.90
2023-03-24T08:06:16.503Z,99.90
2023-03-24T08:08:47.704Z,99.90
2023-03-24T08:11:15.009Z,99.90
2023-03-24T08:13:42.583Z,99.90
2023-03-24T08:16:10.032Z,99.90
2023-03-24T08:18:38.213Z,99.90
2023-03-24T08:21:05.977Z,99.90
2023-03-24T08:23:33.332Z,99.90
2023-03-24T08:26:01.282Z,99.90
2023-03-24T08:28:28.619Z,99.90
2023-03-24T08:30:56.098Z,99.90
2023-03-24T08:33:23.516Z,99.90
2023-03-24T08:35:57.555Z,99.90
2023-03-24T08:38:30.722Z,99.90
2023-03-24T08:41:02.749Z,99.90
2023-03-24T08:43:31.249Z,99.90
2023-03-24T08:45:58.893Z,99.90
2023-03-24T08:48:26.385Z,99.90
2023-03-24T08:50:53.884Z,99.90
2023-03-24T08:53:21.655Z,99.90
2023-03-24T08:55:49.289Z,99.90
2023-03-24T08:58:18.236Z,99.90
2023-03-24T09:00:46.190Z,99.90
2023-03-24T09:03:18.089Z,99.90
2023-03-24T09:05:46.585Z,99.90
2023-03-24T09:08:14.804Z,99.90
2023-03-24T09:10:42.545Z,99.90
2023-03-24T09:13:10.044Z,99.90
2023-03-24T09:15:37.827Z,99.90
2023-03-24T09:18:05.474Z,99.90
2023-03-24T09:20:32.794Z,99.90
2023-03-24T09:23:00.181Z,99.90
2023-03-24T09:25:27.491Z,99.90
2023-03-24T09:27:56.519Z,99.90
2023-03-24T09:30:23.909Z,99.90
2023-03-24T09:32:51.598Z,99.90
2023-03-24T09:35:19.052Z,99.90
2023-03-24T09:37:46.702Z,99.90
2023-03-24T09:40:23.546Z,99.90
2023-03-24T09:43:00.559Z,99.90
2023-03-24T09:45:28.341Z,99.90
2023-03-24T09:48:02.046Z,99.90
2023-03-24T09:50:54.920Z,99.90
2023-03-24T09:53:34.679Z,99.90
2023-03-24T09:56:09.105Z,99.90
2023-03-24T09:58:36.575Z,99.90
2023-03-24T10:01:03.910Z,99.90
2023-03-24T10:03:31.402Z,99.90
2023-03-24T10:06:23.071Z,99.90
2023-03-24T10:09:06.578Z,99.90
2023-03-24T10:11:46.374Z,99.90
2023-03-24T10:14:23.237Z,99.90
2023-03-24T10:17:11.155Z,99.90
2023-03-24T10:19:59.925Z,99.90
2023-03-24T10:22:39.525Z,99.90
2023-03-24T10:25:39.741Z,99.90
2023-03-24T10:28:24.227Z,99.90
2023-03-24T10:30:51.703Z,99.90
2023-03-24T10:33:19.033Z,99.90
2023-03-24T10:36:07.741Z,99.90
2023-03-24T10:38:35.682Z,99.90
2023-03-24T10:41:03.118Z,99.90
2023-03-24T10:43:30.464Z,99.90
2023-03-24T10:45:58.114Z,99.90
2023-03-24T10:48:41.996Z,99.90
2023-03-24T10:51:26.611Z,99.90
2023-03-24T10:54:16.007Z,99.90
2023-03-24T10:56:46.176Z,99.90
2023-03-24T10:59:25.573Z,99.90
2023-03-24T11:01:59.790Z,99.90
2023-03-24T11:04:27.615Z,99.90
2023-03-24T11:07:06.813Z,99.90
2023-03-24T11:09:58.107Z,99.90
2023-03-24T11:12:27.435Z,99.90
2023-03-24T11:15:21.874Z,99.90
2023-03-24T11:17:57.201Z,99.90
2023-03-24T11:20:38.602Z,99.90
2023-03-24T11:23:18.270Z,99.90
2023-03-24T11:26:15.552Z,99.90
2023-03-24T11:28:47.565Z,99.90
2023-03-24T11:31:30.929Z,99.90
2023-03-24T11:34:03.601Z,99.90
2023-03-24T11:36:31.091Z,99.90
2023-03-24T11:39:22.822Z,99.90
2023-03-24T11:42:26.649Z,99.90
2023-03-24T11:44:55.364Z,99.90
2023-03-24T11:47:24.173Z,99.90
2023-03-24T11:49:53.283Z,99.90
2023-03-24T11:52:26.568Z,99.90
2023-03-24T11:54:53.948Z,99.90
2023-03-24T11:57:34.964Z,99.90
2023-03-24T12:00:09.260Z,99.90
2023-03-24T12:02:43.903Z,99.90
2023-03-24T12:05:28.881Z,99.90
2023-03-24T12:08:01.296Z,99.90
2023-03-24T12:10:31.708Z,99.90
2023-03-24T12:13:53.116Z,99.90
2023-03-24T12:16:44.726Z,99.90
2023-03-24T12:19:26.106Z,99.90
2023-03-24T12:22:12.119Z,99.90
2023-03-24T12:24:44.929Z,99.90
2023-03-24T12:27:52.392Z,99.90
2023-03-24T12:31:12.927Z,99.90
2023-03-24T12:33:51.469Z,99.90
2023-03-24T12:36:24.612Z,99.90
2023-03-24T12:39:11.676Z,99.90
2023-03-24T12:41:45.253Z,99.90
2023-03-24T12:44:33.904Z,99.90
2023-03-24T12:47:39.321Z,99.90
2023-03-24T12:50:39.179Z,99.90
2023-03-24T12:53:16.290Z,99.80
2023-03-24T12:56:11.030Z,99.90
2023-03-24T12:58:41.746Z,98.50
2023-03-24T13:01:15.185Z,98.90
2023-03-24T13:03:48.703Z,98.70
2023-03-24T13:06:32.344Z,98.80
2023-03-24T13:09:05.223Z,99.90
2023-03-24T13:11:38.475Z,99.90
2023-03-24T13:14:09.293Z,99.90
2023-03-24T13:16:36.912Z,99.90
2023-03-24T13:19:04.320Z,99.90
2023-03-24T13:21:35.373Z,99.90
2023-03-24T13:24:09.979Z,99.90
2023-03-24T13:26:39.464Z,99.90
2023-03-24T13:29:42.000Z,99.90
2023-03-24T13:32:24.346Z,99.90
2023-03-24T13:34:57.959Z,99.90
2023-03-24T13:38:16.332Z,99.90
2023-03-24T13:40:44.016Z,99.90
2023-03-24T13:43:21.620Z,99.90
2023-03-24T13:45:53.180Z,99.90
2023-03-24T13:48:26.754Z,99.90
2023-03-24T13:51:00.447Z,99.90
2023-03-24T13:53:37.391Z,99.90
2023-03-24T13:56:05.859Z,99.90
2023-03-24T13:59:11.506Z,99.90
2023-03-24T14:01:43.988Z,99.90
2023-03-24T14:04:28.545Z,99.90
2023-03-24T14:06:59.319Z,99.90
2023-03-24T14:09:28.412Z,99.90
2023-03-24T14:11:55.717Z,99.90
2023-03-24T14:14:26.652Z,99.90
2023-03-24T14:17:06.461Z,99.90
2023-03-24T14:19:45.417Z,99.90
2023-03-24T14:22:23.574Z,99.90
2023-03-24T14:25:02.132Z,99.90
2023-03-24T14:27:42.494Z,99.90
2023-03-24T14:30:26.600Z,99.90
2023-03-24T14:33:00.802Z,99.90
2023-03-24T14:35:34.069Z,99.90
2023-03-24T14:38:24.323Z,99.90
2023-03-24T14:40:58.833Z,99.90
2023-03-24T14:43:28.367Z,99.90
2023-03-24T14:46:03.540Z,99.90
2023-03-24T14:48:38.050Z,99.90
2023-03-24T14:51:36.924Z,99.90
2023-03-24T14:54:06.802Z,99.90
2023-03-24T14:56:37.426Z,99.90
2023-03-24T14:59:09.380Z,99.90
2023-03-24T15:01:37.266Z,99.90
2023-03-24T15:04:08.440Z,99.90
2023-03-24T15:06:48.294Z,99.90
2023-03-24T15:09:17.154Z,99.90
2023-03-24T15:11:45.661Z,99.90
2023-03-24T15:14:21.132Z,99.90
2023-03-24T15:17:03.576Z,99.90
2023-03-24T15:19:30.958Z,99.90
2023-03-24T15:22:03.383Z,99.90
2023-03-24T15:24:35.756Z,99.90
2023-03-24T15:27:08.998Z,99.90
2023-03-24T15:29:37.663Z,99.90
2023-03-24T15:32:05.453Z,99.90
2023-03-24T15:34:42.873Z,99.90
2023-03-24T15:37:23.538Z,99.90
2023-03-24T15:40:01.690Z,99.90
2023-03-24T15:42:44.181Z,99.90
2023-03-24T15:45:24.115Z,99.90
2023-03-24T15:47:52.228Z,99.90
2023-03-24T15:50:36.497Z,99.90
2023-03-24T15:53:19.149Z,99.90
2023-03-24T15:55:46.539Z,99.90
2023-03-24T15:58:21.900Z,99.90
2023-03-24T16:00:51.047Z,99.90
2023-03-24T16:03:18.793Z,99.90
2023-03-24T16:05:51.532Z,99.90
2023-03-24T16:08:29.119Z,99.90
2023-03-24T16:11:05.097Z,99.90
2023-03-24T16:13:32.437Z,99.90
2023-03-24T16:16:14.883Z,99.90
2023-03-24T16:18:44.396Z,99.90
2023-03-24T16:21:16.990Z,99.90
2023-03-24T16:23:45.130Z,99.90
2023-03-24T16:26:32.950Z,99.90
2023-03-24T16:29:21.832Z,99.90
2023-03-24T16:31:53.741Z,99.90
2023-03-24T16:34:21.672Z,99.90
2023-03-24T16:36:53.008Z,99.90
2023-03-24T16:39:27.786Z,99.90
2023-03-24T16:41:55.425Z,99.90
2023-03-24T16:44:23.240Z,99.90
2023-03-24T16:46:51.950Z,99.90
2023-03-24T16:49:19.817Z,99.90
2023-03-24T16:51:47.473Z,99.90
2023-03-24T16:54:14.948Z,99.90
2023-03-24T16:56:42.384Z,99.90
2023-03-24T16:59:10.660Z,99.90
2023-03-24T17:01:45.965Z,99.90
2023-03-24T17:04:19.287Z,99.90
2023-03-24T17:06:53.520Z,99.90
2023-03-24T17:09:21.248Z,99.90
2023-03-24T17:11:52.798Z,99.90
2023-03-24T17:14:20.275Z,99.90
2023-03-24T17:16:49.085Z,99.90
2023-03-24T17:19:18.142Z,99.90
2023-03-24T17:21:47.473Z,99.90
2023-03-24T17:24:14.826Z,99.90
2023-03-24T17:26:42.396Z,99.90
2023-03-24T17:29:11.328Z,99.90
2023-03-24T17:31:38.860Z,99.90
2023-03-24T17:34:20.636Z,99.90
2023-03-24T17:36:50.569Z,99.90
2023-03-24T17:39:18.681Z,99.90
2023-03-24T17:41:46.108Z,99.90
2023-03-24T17:44:13.660Z,99.90
2023-03-24T17:46:41.336Z,99.90
2023-03-24T17:49:08.808Z,99.90
2023-03-24T17:51:36.241Z,99.90
2023-03-24T17:54:04.184Z,99.90
2023-03-24T17:56:32.010Z,99.90
2023-03-24T17:58:59.327Z,99.90
2023-03-24T18:01:29.460Z,99.90
2023-03-24T18:03:57.736Z,99.90
2023-03-24T18:06:27.188Z,99.90
2023-03-24T18:08:54.729Z,99.90
2023-03-24T18:11:22.083Z,99.90
2023-03-24T18:13:49.502Z,99.90
2023-03-24T18:16:21.891Z,99.90
2023-03-24T18:18:50.240Z,99.90
2023-03-24T18:21:17.933Z,99.90
2023-03-24T18:23:46.656Z,99.90
2023-03-24T18:26:14.818Z,99.90
2023-03-24T18:28:42.819Z,99.90
2023-03-24T18:31:12.804Z,99.90
2023-03-24T18:33:42.714Z,99.90
2023-03-24T18:36:10.629Z,99.90
2023-03-24T18:38:38.238Z,99.90
2023-03-24T18:41:06.983Z,99.90
2023-03-24T18:43:37.566Z,99.90
2023-03-24T18:46:09.342Z,99.90
2023-03-24T18:48:41.866Z,99.90
2023-03-24T18:51:09.563Z,99.90
2023-03-24T18:53:37.436Z,99.90
2023-03-24T18:56:06.007Z,99.90
2023-03-24T18:58:33.804Z,99.90
2023-03-24T19:01:09.123Z,99.90
2023-03-24T19:03:38.425Z,99.90
2023-03-24T19:06:07.163Z,99.90
2023-03-24T19:08:37.878Z,99.90
2023-03-24T19:11:05.618Z,99.90
2023-03-24T19:13:33.167Z,99.90
2023-03-24T19:16:00.587Z,99.90
2023-03-24T19:18:27.893Z,99.90
2023-03-24T19:20:56.141Z,99.90
2023-03-24T19:23:24.532Z,99.90
2023-03-24T19:25:55.173Z,99.90
2023-03-24T19:28:23.298Z,99.90
2023-03-24T19:30:50.918Z,99.90
2023-03-24T19:33:18.339Z,99.90
2023-03-24T19:35:49.816Z,99.90
2023-03-24T19:38:18.017Z,99.90
2023-03-24T19:40:45.584Z,99.90
2023-03-24T19:43:12.934Z,99.90
2023-03-24T19:45:43.100Z,99.90
2023-03-24T19:48:10.870Z,99.90
2023-03-24T19:50:38.398Z,99.90
2023-03-24T19:53:05.875Z,99.90
2023-03-24T19:55:33.624Z,99.90
2023-03-24T19:58:01.057Z,99.90
2023-03-24T20:00:28.368Z,99.90
2023-03-24T20:02:55.844Z,99.90
2023-03-24T20:05:23.262Z,99.90
2023-03-24T20:07:53.667Z,99.90
2023-03-24T20:10:21.811Z,99.90
2023-03-24T20:12:49.166Z,99.90
2023-03-24T20:15:16.612Z,99.90
2023-03-24T20:17:44.140Z,99.90
2023-03-24T20:20:15.158Z,99.90
2023-03-24T20:22:45.607Z,99.90
2023-03-24T20:25:14.360Z,99.90
2023-03-24T20:27:42.039Z,99.90
2023-03-24T20:30:10.293Z,99.90
2023-03-24T20:32:37.755Z,99.90
2023-03-24T20:35:05.872Z,99.90
2023-03-24T20:37:35.678Z,99.90
2023-03-24T20:40:05.327Z,99.90
2023-03-24T20:42:33.273Z,99.90
2023-03-24T20:45:00.792Z,99.90
2023-03-24T20:47:28.179Z,99.90
2023-03-24T20:49:55.616Z,99.90
2023-03-24T20:52:24.239Z,99.90
2023-03-24T20:54:52.013Z,99.90
2023-03-24T20:57:19.464Z,99.90
2023-03-24T20:59:48.142Z,99.90
2023-03-24T21:02:15.972Z,99.90
2023-03-24T21:04:43.629Z,99.90
2023-03-24T21:07:11.171Z,99.90
2023-03-24T21:09:38.695Z,99.90
2023-03-24T21:12:06.629Z,99.90
2023-03-24T21:14:34.132Z,99.90
2023-03-24T21:17:01.740Z,99.90
2023-03-24T21:19:29.188Z,99.90
2023-03-24T21:21:56.529Z,99.90
2023-03-24T21:24:24.359Z,99.90
2023-03-24T21:26:53.918Z,99.90
2023-03-24T21:29:22.631Z,99.90
2023-03-24T21:31:50.243Z,99.90
2023-03-24T21:34:17.600Z,99.90
2023-03-24T21:36:46.065Z,99.90
2023-03-24T21:39:13.444Z,99.90
2023-03-24T21:41:40.822Z,99.90
2023-03-24T21:44:09.526Z,99.90
2023-03-24T21:46:37.167Z,99.90
2023-03-24T21:49:05.141Z,99.90
2023-03-24T21:51:36.932Z,99.90
2023-03-24T21:54:06.555Z,99.90
2023-03-24T21:56:34.699Z,99.90
2023-03-24T21:59:02.213Z,99.90
2023-03-24T22:01:31.081Z,99.90
2023-03-24T22:03:59.232Z,99.90
2023-03-24T22:06:28.750Z,99.90
2023-03-24T22:08:58.510Z,99.90
2023-03-24T22:11:26.257Z,99.90
2023-03-24T22:13:53.841Z,99.90
2023-03-24T22:16:21.344Z,99.90
2023-03-24T22:18:48.727Z,99.90
2023-03-24T22:21:16.042Z,99.90
2023-03-24T22:23:43.489Z,99.90
2023-03-24T22:26:14.989Z,99.90
2023-03-24T22:28:42.619Z,99.90
2023-03-24T22:31:14.581Z,99.90
2023-03-24T22:33:42.232Z,99.90
2023-03-24T22:36:09.943Z,99.90
2023-03-24T22:38:37.491Z,99.90
2023-03-24T22:41:06.566Z,99.90
2023-03-24T22:43:35.023Z,99.90
2023-03-24T22:46:03.177Z,99.90
2023-03-24T22:48:30.776Z,99.90
2023-03-24T22:50:58.156Z,99.90
2023-03-24T22:53:25.584Z,99.90
2023-03-24T22:55:53.184Z,99.90
2023-03-24T22:58:21.317Z,99.90
2023-03-24T23:00:49.380Z,99.90
2023-03-24T23:03:16.852Z,99.90
2023-03-24T23:05:45.735Z,99.90
2023-03-24T23:08:15.268Z,99.90
2023-03-24T23:10:43.869Z,99.90
2023-03-24T23:13:11.660Z,99.90
2023-03-24T23:15:39.738Z,99.90
2023-03-24T23:18:07.272Z,99.90
2023-03-24T23:20:34.753Z,99.90
2023-03-24T23:23:03.786Z,99.90
2023-03-24T23:25:34.591Z,99.90
2023-03-24T23:28:01.989Z,99.90
2023-03-24T23:30:29.316Z,99.90
2023-03-24T23:32:57.509Z,99.90
2023-03-24T23:35:24.964Z,99.90
2023-03-24T23:37:52.542Z,99.90
2023-03-24T23:40:19.940Z,99.90
2023-03-24T23:42:48.010Z,99.90
2023-03-24T23:45:18.047Z,99.90
2023-03-24T23:47:50.435Z,99.90
2023-03-24T23:50:18.713Z,99.90
2023-03-24T23:52:46.060Z,99.90
2023-03-24T23:55:14.388Z,99.90
2023-03-24T23:57:42.351Z,99.90
